Time,TemperatureF,DewpointF,PressureIn,WindDirection,WindDirectionDegrees,WindSpeedMPH,WindSpeedGustMPH,Humidity,HourlyPrecipIn,Conditions,Clouds,dailyrainin,SoftwareType,DateUTC
2013-03-07 00:00:00,35.7,26.9,30.11,NNW,335,6.0,10.0,70,0.00,,---,0.00,VWS V14.01,2013-03-07 05:00:00,
2013-03-07 00:01:00,35.7,26.9,30.12,WNW,302,8.0,10.0,70,0.00,,---,0.00,VWS V14.01,2013-03-07 05:01:00,
2013-03-07 00:02:00,35.7,26.9,30.12,WNW,296,6.0,13.0,70,0.00,,---,0.00,VWS V14.01,2013-03-07 05:02:00,
2013-03-07 00:07:00,35.7,26.9,30.12,NW,316,11.0,16.0,70,0.00,,---,0.00,VWS V14.01,2013-03-07 05:07:00,
2013-03-07 00:10:00,35.6,26.8,30.14,WNW,296,8.0,21.0,70,0.00,,---,0.00,VWS V14.01,2013-03-07 05:10:00,
2013-03-07 00:12:00,35.7,26.9,30.12,North,350,7.0,13.0,70,0.00,,---,0.00,VWS V14.01,2013-03-07 05:12:00,
2013-03-07 00:17:00,35.6,26.8,30.12,WNW,282,7.0,14.0,70,0.00,,---,0.00,VWS V14.01,2013-03-07 05:17:00,
2013-03-07 00:20:00,35.6,26.8,30.14,NW,314,3.0,14.0,70,0.00,,---,0.00,VWS V14.01,2013-03-07 05:20:00,
2013-03-07 00:23:00,35.6,26.8,30.12,NNW,329,1.0,15.0,70,0.00,,---,0.00,VWS V14.01,2013-03-07 05:23:00,
2013-03-07 00:28:00,35.6,27.1,30.13,WNW,303,5.0,15.0,71,0.00,,---,0.00,VWS V14.01,2013-03-07 05:28:00,
2013-03-07 00:30:00,35.7,26.9,30.15,NW,325,8.0,13.0,70,0.00,,---,0.00,VWS V14.01,2013-03-07 05:30:00,
2013-03-07 00:33:00,35.6,27.1,30.13,NW,306,10.0,10.0,71,0.00,,---,0.00,VWS V14.01,2013-03-07 05:33:00,
2013-03-07 00:38:00,35.6,26.8,30.12,NW,304,4.0,14.0,70,0.00,,---,0.00,VWS V14.01,2013-03-07 05:38:00,
2013-03-07 00:40:00,35.6,26.8,30.15,NW,312,4.0,10.0,70,0.00,,---,0.00,VWS V14.01,2013-03-07 05:40:00,
2013-03-07 00:43:00,35.6,26.8,30.13,NW,313,7.0,12.0,70,0.00,,---,0.00,VWS V14.01,2013-03-07 05:43:00,
2013-03-07 00:48:00,35.6,26.8,30.13,NNW,334,13.0,14.0,70,0.00,,---,0.00,VWS V14.01,2013-03-07 05:48:00,
2013-03-07 00:50:00,35.6,26.8,30.15,NW,319,3.0,9.0,70,0.00,,---,0.00,VWS V14.01,2013-03-07 05:50:00,
2013-03-07 00:53:00,35.6,27.1,30.13,NNW,336,9.0,11.0,71,0.00,,---,0.00,VWS V14.01,2013-03-07 05:53:00,
2013-03-07 00:58:00,35.6,26.8,30.13,NNW,333,10.0,14.0,70,0.00,,---,0.00,VWS V14.01,2013-03-07 05:58:00,
2013-03-07 01:00:00,35.5,26.7,30.14,NW,322,4.0,12.0,70,0.00,,---,0.00,VWS V14.01,2013-03-07 06:00:00,
2013-03-07 01:03:00,35.6,26.8,30.13,NNW,336,8.0,15.0,70,0.00,,---,0.00,VWS V14.01,2013-03-07 06:03:00,
2013-03-07 01:08:00,35.6,26.8,30.14,NW,320,5.0,16.0,70,0.00,,---,0.00,VWS V14.01,2013-03-07 06:08:00,
2013-03-07 01:10:00,35.6,26.5,30.14,NW,306,6.0,15.0,69,0.00,,---,0.00,VWS V14.01,2013-03-07 06:10:00,
2013-03-07 01:14:00,35.6,26.8,30.14,NW,311,10.0,13.0,70,0.00,,---,0.00,VWS V14.01,2013-03-07 06:14:00,
2013-03-07 01:19:00,35.6,26.8,30.14,NNW,329,10.0,14.0,70,0.00,,---,0.00,VWS V14.01,2013-03-07 06:19:00,
2013-03-07 01:20:00,35.6,26.5,30.13,NNW,327,10.0,17.0,69,0.00,,---,0.00,VWS V14.01,2013-03-07 06:20:00,
2013-03-07 01:24:00,35.6,26.8,30.14,NNW,348,8.0,12.0,70,0.00,,---,0.00,VWS V14.01,2013-03-07 06:24:00,
2013-03-07 01:29:00,35.7,26.9,30.15,NNW,329,13.0,13.0,70,0.00,,---,0.00,VWS V14.01,2013-03-07 06:29:00,
2013-03-07 01:30:00,35.4,26.3,30.13,NNW,336,4.0,15.0,69,0.00,,---,0.00,VWS V14.01,2013-03-07 06:30:00,
2013-03-07 01:34:00,35.7,26.9,30.14,NW,308,4.0,10.0,70,0.00,,---,0.00,VWS V14.01,2013-03-07 06:34:00,
2013-03-07 01:39:00,35.6,26.8,30.15,NW,323,6.0,10.0,70,0.00,,---,0.00,VWS V14.01,2013-03-07 06:39:00,
2013-03-07 01:40:00,35.1,26.0,30.13,NNW,342,7.0,13.0,69,0.00,,---,0.00,VWS V14.01,2013-03-07 06:40:00,
2013-03-07 01:44:00,35.6,26.8,30.15,NW,306,7.0,9.0,70,0.00,,---,0.00,VWS V14.01,2013-03-07 06:44:00,
2013-03-07 01:49:00,35.6,26.8,30.15,WNW,296,7.0,9.0,70,0.00,,---,0.00,VWS V14.01,2013-03-07 06:49:00,
2013-03-07 01:50:00,35.1,26.0,30.13,NW,326,4.0,15.0,69,0.00,,---,0.00,VWS V14.01,2013-03-07 06:50:00,
2013-03-07 01:54:00,35.5,26.7,30.14,NW,325,4.0,10.0,70,0.00,,---,0.00,VWS V14.01,2013-03-07 06:54:00,
2013-03-07 01:59:00,35.5,26.7,30.14,WNW,296,5.0,12.0,70,0.00,,---,0.00,VWS V14.01,2013-03-07 06:59:00,
2013-03-07 02:00:00,35.1,26.0,30.13,NNW,328,2.0,10.0,69,0.00,,---,0.00,VWS V14.01,2013-03-07 07:00:00,
2013-03-07 02:04:00,35.5,26.7,30.14,WNW,296,7.0,15.0,70,0.00,,---,0.00,VWS V14.01,2013-03-07 07:04:00,
2013-03-07 02:09:00,35.6,26.5,30.14,NW,306,6.0,15.0,69,0.00,,---,0.00,VWS V14.01,2013-03-07 07:09:00,
2013-03-07 02:10:00,35.3,25.8,30.13,NW,312,6.0,13.0,68,0.00,,---,0.00,VWS V14.01,2013-03-07 07:10:00,
2013-03-07 02:14:00,35.6,26.5,30.14,NNW,327,5.0,12.0,69,0.00,,---,0.00,VWS V14.01,2013-03-07 07:14:00,
2013-03-07 02:20:00,35.5,26.4,30.13,NNW,343,9.0,12.0,69,0.00,,---,0.00,VWS V14.01,2013-03-07 07:20:00,
2013-03-07 02:25:00,35.5,26.4,30.13,NW,326,4.0,14.0,69,0.00,,---,0.00,VWS V14.01,2013-03-07 07:25:00,
2013-03-07 02:30:00,35.4,26.3,30.13,NW,325,5.0,6.0,69,0.00,,---,0.00,VWS V14.01,2013-03-07 07:30:00,
2013-03-07 02:35:00,35.3,26.2,30.13,NW,320,7.0,13.0,69,0.00,,---,0.00,VWS V14.01,2013-03-07 07:35:00,
2013-03-07 02:40:00,35.1,25.6,30.13,WNW,302,12.0,15.0,68,0.00,,---,0.00,VWS V14.01,2013-03-07 07:40:00,
2013-03-07 02:45:00,35.2,25.7,30.13,NNW,339,7.0,15.0,68,0.00,,---,0.00,VWS V14.01,2013-03-07 07:45:00,
2013-03-07 02:50:00,35.1,26.0,30.13,NNW,331,8.0,8.0,69,0.00,,---,0.00,VWS V14.01,2013-03-07 07:50:00,
2013-03-07 02:55:00,35.0,25.9,30.13,NW,312,6.0,9.0,69,0.00,,---,0.00,VWS V14.01,2013-03-07 07:55:00,
2013-03-07 03:00:00,35.1,26.0,30.13,NW,308,3.0,5.0,69,0.00,,---,0.00,VWS V14.01,2013-03-07 08:00:00,
2013-03-07 03:06:00,35.2,25.7,30.13,West,276,10.0,12.0,68,0.00,,---,0.00,VWS V14.01,2013-03-07 08:06:00,
2013-03-07 03:10:00,35.7,25.5,30.13,WNW,284,5.0,13.0,66,0.00,,---,0.00,VWS V14.01,2013-03-07 08:10:00,
2013-03-07 03:11:00,35.3,25.8,30.13,NW,304,3.0,7.0,68,0.00,,---,0.00,VWS V14.01,2013-03-07 08:11:00,
2013-03-07 03:16:00,35.2,26.1,30.13,NW,309,4.0,8.0,69,0.00,,---,0.00,VWS V14.01,2013-03-07 08:16:00,
2013-03-07 03:20:00,35.7,25.5,30.13,West,279,7.0,12.0,66,0.00,,---,0.00,VWS V14.01,2013-03-07 08:20:00,
2013-03-07 03:22:00,35.2,25.7,30.13,NW,315,8.0,15.0,68,0.00,,---,0.00,VWS V14.01,2013-03-07 08:22:00,
2013-03-07 03:27:00,35.3,25.8,30.12,NNW,344,3.0,15.0,68,0.00,,---,0.00,VWS V14.01,2013-03-07 08:27:00,
2013-03-07 03:30:00,35.6,25.4,30.13,West,263,3.0,14.0,66,0.00,,---,0.00,VWS V14.01,2013-03-07 08:30:00,
2013-03-07 03:32:00,35.5,25.6,30.12,NNW,336,6.0,14.0,67,0.00,,---,0.00,VWS V14.01,2013-03-07 08:32:00,
2013-03-07 03:37:00,35.4,25.5,30.12,NW,309,5.0,14.0,67,0.00,,---,0.00,VWS V14.01,2013-03-07 08:37:00,
2013-03-07 03:40:00,35.5,25.3,30.13,WSW,257,1.0,10.0,66,0.00,,---,0.00,VWS V14.01,2013-03-07 08:40:00,
2013-03-07 03:42:00,35.4,25.5,30.12,NW,317,9.0,17.0,67,0.00,,---,0.00,VWS V14.01,2013-03-07 08:42:00,
2013-03-07 03:47:00,35.5,25.6,30.13,NW,325,2.0,17.0,67,0.00,,---,0.00,VWS V14.01,2013-03-07 08:47:00,
2013-03-07 03:50:00,35.1,25.6,30.14,West,271,4.0,6.0,68,0.00,,---,0.00,VWS V14.01,2013-03-07 08:50:00,
2013-03-07 03:53:00,35.6,25.7,30.13,NNW,332,8.0,13.0,67,0.00,,---,0.00,VWS V14.01,2013-03-07 08:53:00,
2013-03-07 03:58:00,35.6,25.7,30.13,WNW,284,5.0,13.0,67,0.00,,---,0.00,VWS V14.01,2013-03-07 08:58:00,
2013-03-07 04:00:00,35.2,25.4,30.14,SW,235,5.0,7.0,67,0.00,,---,0.00,VWS V14.01,2013-03-07 09:00:00,
2013-03-07 04:03:00,35.7,25.8,30.13,NW,309,9.0,12.0,67,0.00,,---,0.00,VWS V14.01,2013-03-07 09:03:00,
2013-03-07 04:08:00,35.7,25.5,30.13,North,350,5.0,13.0,66,0.00,,---,0.00,VWS V14.01,2013-03-07 09:08:00,
2013-03-07 04:10:00,35.3,25.5,30.14,WSW,251,7.0,9.0,67,0.00,,---,0.00,VWS V14.01,2013-03-07 09:10:00,
2013-03-07 04:13:00,35.7,25.5,30.13,West,280,11.0,12.0,66,0.00,,---,0.00,VWS V14.01,2013-03-07 09:13:00,
2013-03-07 04:19:00,35.7,25.5,30.13,WNW,301,10.0,12.0,66,0.00,,---,0.00,VWS V14.01,2013-03-07 09:19:00,
2013-03-07 04:20:00,35.2,25.4,30.15,West,276,14.0,14.0,67,0.00,,---,0.00,VWS V14.01,2013-03-07 09:20:00,
2013-03-07 04:24:00,35.8,25.6,30.13,NNW,335,7.0,14.0,66,0.00,,---,0.00,VWS V14.01,2013-03-07 09:24:00,
2013-03-07 04:29:00,35.7,25.5,30.13,West,259,3.0,14.0,66,0.00,,---,0.00,VWS V14.01,2013-03-07 09:29:00,
2013-03-07 04:30:00,35.3,25.5,30.15,WSW,246,5.0,14.0,67,0.00,,---,0.00,VWS V14.01,2013-03-07 09:30:00,
2013-03-07 04:34:00,35.5,25.3,30.13,NW,309,4.0,10.0,66,0.00,,---,0.00,VWS V14.01,2013-03-07 09:34:00,
2013-03-07 04:39:00,35.5,25.3,30.13,WNW,286,2.0,10.0,66,0.00,,---,0.00,VWS V14.01,2013-03-07 09:39:00,
2013-03-07 04:40:00,35.1,25.6,30.15,West,271,2.0,8.0,68,0.00,,---,0.00,VWS V14.01,2013-03-07 09:40:00,
2013-03-07 04:44:00,35.4,25.5,30.13,SSW,205,4.0,4.0,67,0.00,,---,0.00,VWS V14.01,2013-03-07 09:44:00,
2013-03-07 04:50:00,35.1,25.3,30.14,WSW,244,4.0,4.0,67,0.00,,---,0.00,VWS V14.01,2013-03-07 09:50:00,
2013-03-07 04:55:00,35.1,25.6,30.14,NW,313,7.0,7.0,68,0.00,,---,0.00,VWS V14.01,2013-03-07 09:55:00,
2013-03-07 05:00:00,35.2,25.7,30.14,NW,309,3.0,5.0,68,0.00,,---,0.00,VWS V14.01,2013-03-07 10:00:00,
2013-03-07 05:05:00,35.3,25.5,30.14,West,276,3.0,8.0,67,0.00,,---,0.00,VWS V14.01,2013-03-07 10:05:00,
2013-03-07 05:10:00,35.2,25.7,30.17,West,261,6.0,13.0,68,0.00,,---,0.00,VWS V14.01,2013-03-07 10:10:00,
2013-03-07 05:11:00,35.3,25.5,30.15,West,273,2.0,7.0,67,0.00,,---,0.00,VWS V14.01,2013-03-07 10:11:00,
2013-03-07 05:16:00,35.2,25.4,30.15,West,275,5.0,7.0,67,0.00,,---,0.00,VWS V14.01,2013-03-07 10:16:00,
2013-03-07 05:20:00,35.2,25.7,30.17,West,261,2.0,10.0,68,0.00,,---,0.00,VWS V14.01,2013-03-07 10:20:00,
2013-03-07 05:21:00,35.2,25.4,30.15,West,271,7.0,14.0,67,0.00,,---,0.00,VWS V14.01,2013-03-07 10:21:00,
2013-03-07 05:26:00,35.4,25.5,30.15,West,261,7.0,14.0,67,0.00,,---,0.00,VWS V14.01,2013-03-07 10:26:00,
2013-03-07 05:30:00,35.0,25.5,30.18,WNW,290,2.0,8.0,68,0.00,,---,0.00,VWS V14.01,2013-03-07 10:30:00,
2013-03-07 05:31:00,35.3,25.5,30.15,West,281,5.0,8.0,67,0.00,,---,0.00,VWS V14.01,2013-03-07 10:31:00,
2013-03-07 05:36:00,35.2,25.7,30.14,SW,228,6.0,8.0,68,0.00,,---,0.00,VWS V14.01,2013-03-07 10:36:00,
2013-03-07 05:40:00,34.9,25.4,30.18,West,266,7.0,12.0,68,0.00,,---,0.00,VWS V14.01,2013-03-07 10:40:00,
2013-03-07 05:41:00,35.1,25.6,30.15,West,266,6.0,9.0,68,0.00,,---,0.00,VWS V14.01,2013-03-07 10:41:00,
2013-03-07 05:46:00,35.2,25.7,30.16,West,259,3.0,12.0,68,0.00,,---,0.00,VWS V14.01,2013-03-07 10:46:00,
2013-03-07 05:50:00,34.9,25.4,30.18,West,268,3.0,9.0,68,0.00,,---,0.00,VWS V14.01,2013-03-07 10:50:00,
2013-03-07 05:52:00,35.1,25.6,30.16,SW,234,3.0,6.0,68,0.00,,---,0.00,VWS V14.01,2013-03-07 10:52:00,
2013-03-07 05:57:00,35.0,25.5,30.16,WSW,256,4.0,8.0,68,0.00,,---,0.00,VWS V14.01,2013-03-07 10:57:00,
2013-03-07 06:00:00,34.9,25.4,30.18,WNW,282,2.0,13.0,68,0.00,,---,0.00,VWS V14.01,2013-03-07 11:00:00,
2013-03-07 06:02:00,35.1,25.6,30.17,West,277,4.0,8.0,68,0.00,,---,0.00,VWS V14.01,2013-03-07 11:02:00,
2013-03-07 06:07:00,35.1,25.6,30.17,WSW,251,7.0,13.0,68,0.00,,---,0.00,VWS V14.01,2013-03-07 11:07:00,
2013-03-07 06:10:00,34.9,25.4,30.18,West,281,5.0,9.0,68,0.00,,---,0.00,VWS V14.01,2013-03-07 11:10:00,
2013-03-07 06:12:00,35.2,25.7,30.17,West,273,6.0,6.0,68,0.00,,---,0.00,VWS V14.01,2013-03-07 11:12:00,
2013-03-07 06:17:00,35.2,25.7,30.17,WNW,283,3.0,10.0,68,0.00,,---,0.00,VWS V14.01,2013-03-07 11:17:00,
2013-03-07 06:20:00,35.2,25.4,30.19,NW,326,4.0,8.0,67,0.00,,---,0.00,VWS V14.01,2013-03-07 11:20:00,
2013-03-07 06:22:00,35.1,25.6,30.17,SW,234,2.0,4.0,68,0.00,,---,0.00,VWS V14.01,2013-03-07 11:22:00,
2013-03-07 06:28:00,35.0,25.5,30.18,WNW,289,3.0,8.0,68,0.00,,---,0.00,VWS V14.01,2013-03-07 11:28:00,
2013-03-07 06:30:00,35.7,25.5,30.19,WNW,296,5.0,8.0,66,0.00,,---,0.00,VWS V14.01,2013-03-07 11:30:00,
2013-03-07 06:33:00,34.9,25.4,30.17,West,268,6.0,6.0,68,0.00,,---,0.00,VWS V14.01,2013-03-07 11:33:00,
2013-03-07 06:38:00,34.9,25.8,30.18,WSW,257,8.0,11.0,69,0.00,,---,0.00,VWS V14.01,2013-03-07 11:38:00,
2013-03-07 06:40:00,36.1,25.9,30.20,North,360,3.0,8.0,66,0.00,,---,0.00,VWS V14.01,2013-03-07 11:40:00,
2013-03-07 06:43:00,34.8,25.7,30.18,West,273,6.0,8.0,69,0.00,,---,0.00,VWS V14.01,2013-03-07 11:43:00,
2013-03-07 06:48:00,34.9,25.4,30.18,SW,228,5.0,9.0,68,0.00,,---,0.00,VWS V14.01,2013-03-07 11:48:00,
2013-03-07 06:50:00,36.1,25.5,30.20,NW,325,2.0,7.0,65,0.00,,---,0.00,VWS V14.01,2013-03-07 11:50:00,
2013-03-07 06:53:00,34.8,25.3,30.18,West,267,5.0,9.0,68,0.00,,---,0.00,VWS V14.01,2013-03-07 11:53:00,
2013-03-07 06:59:00,34.9,25.4,30.18,West,263,6.0,13.0,68,0.00,,---,0.00,VWS V14.01,2013-03-07 11:59:00,
2013-03-07 07:00:00,36.1,25.5,30.21,NW,314,4.0,14.0,65,0.00,,---,0.00,VWS V14.01,2013-03-07 12:00:00,
2013-03-07 07:04:00,34.9,25.4,30.18,West,267,4.0,9.0,68,0.00,,---,0.00,VWS V14.01,2013-03-07 12:04:00,
2013-03-07 07:09:00,34.9,25.4,30.18,WSW,255,5.0,9.0,68,0.00,,---,0.00,VWS V14.01,2013-03-07 12:09:00,
2013-03-07 07:10:00,36.7,25.3,30.21,WNW,290,10.0,12.0,63,0.00,,---,0.00,VWS V14.01,2013-03-07 12:10:00,
2013-03-07 07:14:00,35.0,25.5,30.19,WNW,289,5.0,8.0,68,0.00,,---,0.00,VWS V14.01,2013-03-07 12:14:00,
2013-03-07 07:19:00,35.2,25.4,30.19,WNW,296,3.0,8.0,67,0.00,,---,0.00,VWS V14.01,2013-03-07 12:19:00,
2013-03-07 07:20:00,36.6,25.2,30.21,NW,322,6.0,15.0,63,0.00,,---,0.00,VWS V14.01,2013-03-07 12:20:00,
2013-03-07 07:24:00,35.5,25.3,30.19,NW,315,3.0,7.0,66,0.00,,---,0.00,VWS V14.01,2013-03-07 12:24:00,
2013-03-07 07:29:00,35.7,25.5,30.19,WNW,296,5.0,8.0,66,0.00,,---,0.00,VWS V14.01,2013-03-07 12:29:00,
2013-03-07 07:30:00,36.5,25.5,30.21,WNW,289,6.0,14.0,64,0.00,,---,0.00,VWS V14.01,2013-03-07 12:30:00,
2013-03-07 07:35:00,35.9,25.7,30.19,West,265,6.0,6.0,66,0.00,,---,0.00,VWS V14.01,2013-03-07 12:35:00,
2013-03-07 07:40:00,36.1,25.9,30.20,NNW,348,3.0,3.0,66,0.00,,---,0.00,VWS V14.01,2013-03-07 12:40:00,
2013-03-07 07:45:00,36.2,25.6,30.20,NW,308,2.0,6.0,65,0.00,,---,0.00,VWS V14.01,2013-03-07 12:45:00,
2013-03-07 07:50:00,36.1,25.5,30.21,WNW,302,3.0,4.0,65,0.00,,---,0.00,VWS V14.01,2013-03-07 12:50:00,
2013-03-07 07:55:00,36.1,25.1,30.21,WNW,296,9.0,14.0,64,0.00,,---,0.00,VWS V14.01,2013-03-07 12:55:00,
2013-03-07 08:00:00,36.1,25.5,30.21,NW,304,4.0,4.0,65,0.00,,---,0.00,VWS V14.01,2013-03-07 13:00:00,
2013-03-07 08:05:00,36.6,25.2,30.21,West,280,4.0,12.0,63,0.00,,---,0.00,VWS V14.01,2013-03-07 13:05:00,
2013-03-07 08:10:00,36.6,25.2,30.21,NNW,329,12.0,12.0,63,0.00,,---,0.00,VWS V14.01,2013-03-07 13:10:00,
2013-03-07 08:16:00,36.5,25.1,30.21,NNW,331,2.0,12.0,63,0.00,,---,0.00,VWS V14.01,2013-03-07 13:16:00,
2013-03-07 08:20:00,39.1,26.0,30.21,North,5,3.0,10.0,59,0.00,,---,0.00,VWS V14.01,2013-03-07 13:20:00,
2013-03-07 08:21:00,36.7,25.3,30.21,NW,306,8.0,10.0,63,0.00,,---,0.00,VWS V14.01,2013-03-07 13:21:00,
2013-03-07 08:26:00,36.6,25.2,30.21,WNW,288,6.0,14.0,63,0.00,,---,0.00,VWS V14.01,2013-03-07 13:26:00,
2013-03-07 08:30:00,39.5,26.0,30.21,WNW,283,8.0,14.0,58,0.00,,---,0.00,VWS V14.01,2013-03-07 13:30:00,
2013-03-07 08:31:00,36.5,25.5,30.21,WNW,283,8.0,17.0,64,0.00,,---,0.00,VWS V14.01,2013-03-07 13:31:00,
2013-03-07 08:36:00,36.8,26.1,30.21,West,271,13.0,17.0,65,0.00,,---,0.00,VWS V14.01,2013-03-07 13:36:00,
2013-03-07 08:40:00,40.4,26.0,30.22,North,355,10.0,15.0,56,0.00,,---,0.00,VWS V14.01,2013-03-07 13:40:00,
2013-03-07 08:41:00,36.8,25.8,30.21,NW,316,3.0,12.0,64,0.00,,---,0.00,VWS V14.01,2013-03-07 13:41:00,
2013-03-07 08:47:00,36.8,25.0,30.21,WNW,287,10.0,12.0,62,0.00,,---,0.00,VWS V14.01,2013-03-07 13:47:00,
2013-03-07 08:50:00,40.1,25.2,30.22,NNW,328,3.0,20.0,55,0.00,,---,0.00,VWS V14.01,2013-03-07 13:50:00,
2013-03-07 08:52:00,36.6,25.6,30.21,West,274,7.0,10.0,64,0.00,,---,0.00,VWS V14.01,2013-03-07 13:52:00,
2013-03-07 08:57:00,37.2,25.8,30.21,West,279,6.0,10.0,63,0.00,,---,0.00,VWS V14.01,2013-03-07 13:57:00,
2013-03-07 09:00:00,40.9,26.4,30.22,NW,317,6.0,14.0,56,0.00,,---,0.00,VWS V14.01,2013-03-07 14:00:00,
2013-03-07 09:02:00,37.8,25.6,30.21,North,5,3.0,9.0,61,0.00,,---,0.00,VWS V14.01,2013-03-07 14:02:00,
2013-03-07 09:07:00,38.1,25.9,30.21,WNW,292,7.0,10.0,61,0.00,,---,0.00,VWS V14.01,2013-03-07 14:07:00,
2013-03-07 09:10:00,40.0,25.1,30.23,NNW,339,9.0,16.0,55,0.00,,---,0.00,VWS V14.01,2013-03-07 14:10:00,
2013-03-07 09:13:00,38.4,25.7,30.21,West,278,3.0,8.0,60,0.00,,---,0.00,VWS V14.01,2013-03-07 14:13:00,
2013-03-07 09:18:00,38.9,26.2,30.21,WNW,290,7.0,10.0,60,0.00,,---,0.00,VWS V14.01,2013-03-07 14:18:00,
2013-03-07 09:20:00,40.6,25.7,30.23,NNE,23,9.0,15.0,55,0.00,,---,0.00,VWS V14.01,2013-03-07 14:20:00,
2013-03-07 09:23:00,39.3,25.8,30.21,NW,313,11.0,14.0,58,0.00,,---,0.00,VWS V14.01,2013-03-07 14:23:00,
2013-03-07 09:28:00,39.3,25.8,30.21,NW,320,4.0,14.0,58,0.00,,---,0.00,VWS V14.01,2013-03-07 14:28:00,
2013-03-07 09:30:00,40.0,25.6,30.23,WNW,285,5.0,18.0,56,0.00,,---,0.00,VWS V14.01,2013-03-07 14:30:00,
2013-03-07 09:33:00,39.6,25.6,30.21,North,360,11.0,15.0,57,0.00,,---,0.00,VWS V14.01,2013-03-07 14:33:00,
2013-03-07 09:39:00,40.3,26.7,30.22,WNW,289,7.0,15.0,58,0.00,,---,0.00,VWS V14.01,2013-03-07 14:39:00,
2013-03-07 09:40:00,39.7,25.7,30.23,NW,305,10.0,17.0,57,0.00,,---,0.00,VWS V14.01,2013-03-07 14:40:00,
2013-03-07 09:44:00,40.5,26.5,30.22,West,264,5.0,13.0,57,0.00,,---,0.00,VWS V14.01,2013-03-07 14:44:00,
2013-03-07 09:49:00,40.1,24.8,30.22,NNW,336,11.0,20.0,54,0.00,,---,0.00,VWS V14.01,2013-03-07 14:49:00,
2013-03-07 09:50:00,39.9,25.5,30.23,NW,319,7.0,20.0,56,0.00,,---,0.00,VWS V14.01,2013-03-07 14:50:00,
2013-03-07 09:54:00,40.4,26.0,30.22,NNW,328,2.0,12.0,56,0.00,,---,0.00,VWS V14.01,2013-03-07 14:54:00,
2013-03-07 09:59:00,40.8,26.3,30.22,WNW,286,5.0,14.0,56,0.00,,---,0.00,VWS V14.01,2013-03-07 14:59:00,
2013-03-07 10:00:00,39.9,25.9,30.23,NW,313,14.0,17.0,57,0.00,,---,0.00,VWS V14.01,2013-03-07 15:00:00,
2013-03-07 10:05:00,40.6,26.1,30.23,WSW,257,4.0,13.0,56,0.00,,---,0.00,VWS V14.01,2013-03-07 15:05:00,
2013-03-07 10:10:00,40.0,25.6,30.23,NW,306,9.0,9.0,56,0.00,,---,0.00,VWS V14.01,2013-03-07 15:10:00,
2013-03-07 10:15:00,40.5,25.6,30.23,NNW,344,8.0,15.0,55,0.00,,---,0.00,VWS V14.01,2013-03-07 15:15:00,
2013-03-07 10:20:00,40.6,25.7,30.23,West,272,7.0,16.0,55,0.00,,---,0.00,VWS V14.01,2013-03-07 15:20:00,
2013-03-07 10:25:00,40.6,26.1,30.23,NNW,339,13.0,16.0,56,0.00,,---,0.00,VWS V14.01,2013-03-07 15:25:00,
2013-03-07 10:30:00,39.9,25.9,30.23,WNW,290,5.0,7.0,57,0.00,,---,0.00,VWS V14.01,2013-03-07 15:30:00,
2013-03-07 10:36:00,39.6,25.6,30.23,NW,326,14.0,17.0,57,0.00,,---,0.00,VWS V14.01,2013-03-07 15:36:00,
2013-03-07 10:40:00,43.5,27.5,30.24,NW,317,5.0,17.0,53,0.00,,---,0.00,VWS V14.01,2013-03-07 15:40:00,
2013-03-07 10:41:00,39.8,26.2,30.23,NW,315,13.0,14.0,58,0.00,,---,0.00,VWS V14.01,2013-03-07 15:41:00,
2013-03-07 10:46:00,40.0,26.0,30.23,North,5,16.0,16.0,57,0.00,,---,0.00,VWS V14.01,2013-03-07 15:46:00,
2013-03-07 10:50:00,42.9,26.5,30.23,NNW,327,11.0,11.0,52,0.00,,---,0.00,VWS V14.01,2013-03-07 15:50:00,
2013-03-07 10:51:00,39.8,25.4,30.23,North,360,5.0,7.0,56,0.00,,---,0.00,VWS V14.01,2013-03-07 15:51:00,
2013-03-07 10:56:00,39.7,25.3,30.23,WNW,298,14.0,16.0,56,0.00,,---,0.00,VWS V14.01,2013-03-07 15:56:00,
2013-03-07 11:00:00,43.7,27.7,30.23,NW,313,8.0,15.0,53,0.00,,---,0.00,VWS V14.01,2013-03-07 16:00:00,
2013-03-07 11:01:00,40.1,25.7,30.23,West,265,5.0,14.0,56,0.00,,---,0.00,VWS V14.01,2013-03-07 16:01:00,
2013-03-07 11:06:00,41.2,27.1,30.23,WNW,291,8.0,14.0,57,0.00,,---,0.00,VWS V14.01,2013-03-07 16:06:00,
2013-03-07 11:10:00,43.8,26.9,30.23,NNW,345,9.0,13.0,51,0.00,,---,0.00,VWS V14.01,2013-03-07 16:10:00,
2013-03-07 11:12:00,41.8,26.8,30.23,North,355,10.0,15.0,55,0.00,,---,0.00,VWS V14.01,2013-03-07 16:12:00,
2013-03-07 11:17:00,42.2,27.2,30.23,NNE,15,7.0,15.0,55,0.00,,---,0.00,VWS V14.01,2013-03-07 16:17:00,
2013-03-07 11:20:00,43.3,26.4,30.23,NW,323,10.0,20.0,51,0.00,,---,0.00,VWS V14.01,2013-03-07 16:20:00,
2013-03-07 11:22:00,42.5,26.6,30.23,North,5,8.0,14.0,53,0.00,,---,0.00,VWS V14.01,2013-03-07 16:22:00,
2013-03-07 11:27:00,42.4,27.0,30.23,NNW,346,11.0,14.0,54,0.00,,---,0.00,VWS V14.01,2013-03-07 16:27:00,
2013-03-07 11:30:00,44.0,26.6,30.22,North,355,2.0,13.0,50,0.00,,---,0.00,VWS V14.01,2013-03-07 16:30:00,
2013-03-07 11:32:00,42.7,26.8,30.24,WNW,298,6.0,10.0,53,0.00,,---,0.00,VWS V14.01,2013-03-07 16:32:00,
2013-03-07 11:37:00,43.1,26.7,30.23,NNW,346,12.0,17.0,52,0.00,,---,0.00,VWS V14.01,2013-03-07 16:37:00,
2013-03-07 11:40:00,43.6,26.2,30.22,WNW,286,9.0,16.0,50,0.00,,---,0.00,VWS V14.01,2013-03-07 16:40:00,
2013-03-07 11:42:00,43.3,25.9,30.24,North,5,4.0,10.0,50,0.00,,---,0.00,VWS V14.01,2013-03-07 16:42:00,
2013-03-07 11:48:00,42.8,26.4,30.23,NW,325,5.0,11.0,52,0.00,,---,0.00,VWS V14.01,2013-03-07 16:48:00,
2013-03-07 11:50:00,43.4,26.5,30.22,NNW,329,10.0,15.0,51,0.00,,---,0.00,VWS V14.01,2013-03-07 16:50:00,
2013-03-07 11:53:00,43.1,26.7,30.23,NNW,345,4.0,11.0,52,0.00,,---,0.00,VWS V14.01,2013-03-07 16:53:00,
2013-03-07 11:58:00,43.5,27.5,30.23,NNW,342,13.0,14.0,53,0.00,,---,0.00,VWS V14.01,2013-03-07 16:58:00,
2013-03-07 12:00:00,44.3,27.8,30.21,NNW,340,8.0,14.0,52,0.00,,---,0.00,VWS V14.01,2013-03-07 17:00:00,
2013-03-07 12:03:00,43.7,26.8,30.23,NW,309,6.0,10.0,51,0.00,,---,0.00,VWS V14.01,2013-03-07 17:03:00,
2013-03-07 12:08:00,43.5,27.1,30.22,West,267,6.0,12.0,52,0.00,,---,0.00,VWS V14.01,2013-03-07 17:08:00,
2013-03-07 12:10:00,45.5,28.0,30.21,NW,310,16.0,16.0,50,0.00,,---,0.00,VWS V14.01,2013-03-07 17:10:00,
2013-03-07 12:13:00,43.2,26.3,30.23,WNW,291,5.0,20.0,51,0.00,,---,0.00,VWS V14.01,2013-03-07 17:13:00,
2013-03-07 12:18:00,43.2,26.8,30.23,North,5,5.0,20.0,52,0.00,,---,0.00,VWS V14.01,2013-03-07 17:18:00,
2013-03-07 12:20:00,45.2,26.7,30.20,NW,310,9.0,16.0,48,0.00,,---,0.00,VWS V14.01,2013-03-07 17:20:00,
2013-03-07 12:23:00,43.3,26.4,30.22,NNW,336,9.0,11.0,51,0.00,,---,0.00,VWS V14.01,2013-03-07 17:23:00,
2013-03-07 12:29:00,43.9,27.4,30.22,NNW,340,7.0,13.0,52,0.00,,---,0.00,VWS V14.01,2013-03-07 17:29:00,
2013-03-07 12:30:00,45.1,27.1,30.20,NNE,12,8.0,14.0,49,0.00,,---,0.00,VWS V14.01,2013-03-07 17:30:00,
2013-03-07 12:34:00,44.0,27.0,30.22,North,350,6.0,16.0,51,0.00,,---,0.00,VWS V14.01,2013-03-07 17:34:00,
2013-03-07 12:39:00,43.7,26.3,30.22,NW,307,9.0,16.0,50,0.00,,---,0.00,VWS V14.01,2013-03-07 17:39:00,
2013-03-07 12:40:00,45.0,26.5,30.19,NNW,348,11.0,14.0,48,0.00,,---,0.00,VWS V14.01,2013-03-07 17:40:00,
2013-03-07 12:44:00,43.6,26.7,30.22,NW,311,13.0,15.0,51,0.00,,---,0.00,VWS V14.01,2013-03-07 17:44:00,
2013-03-07 12:49:00,43.4,26.5,30.22,NNW,331,12.0,15.0,51,0.00,,---,0.00,VWS V14.01,2013-03-07 17:49:00,
2013-03-07 12:50:00,45.4,27.4,30.19,NNW,341,7.0,14.0,49,0.00,,---,0.00,VWS V14.01,2013-03-07 17:50:00,
2013-03-07 12:54:00,44.0,27.0,30.21,NNW,342,11.0,14.0,51,0.00,,---,0.00,VWS V14.01,2013-03-07 17:54:00,
2013-03-07 12:59:00,44.3,27.8,30.21,NNW,340,8.0,14.0,52,0.00,,---,0.00,VWS V14.01,2013-03-07 17:59:00,
2013-03-07 13:00:00,44.9,26.9,30.19,NNE,23,7.0,18.0,49,0.00,,---,0.00,VWS V14.01,2013-03-07 18:00:00,
2013-03-07 13:04:00,45.4,27.9,30.21,West,277,7.0,11.0,50,0.00,,---,0.00,VWS V14.01,2013-03-07 18:04:00,
2013-03-07 13:09:00,45.5,28.0,30.21,NW,310,16.0,16.0,50,0.00,,---,0.00,VWS V14.01,2013-03-07 18:09:00,
2013-03-07 13:10:00,44.7,26.2,30.19,NW,309,5.0,19.0,48,0.00,,---,0.00,VWS V14.01,2013-03-07 18:10:00,
2013-03-07 13:15:00,45.6,27.6,30.21,North,9,8.0,16.0,49,0.00,,---,0.00,VWS V14.01,2013-03-07 18:15:00,
2013-03-07 13:20:00,45.2,27.2,30.20,NNW,330,6.0,10.0,49,0.00,,---,0.00,VWS V14.01,2013-03-07 18:20:00,
2013-03-07 13:25:00,45.1,27.1,30.20,NW,315,11.0,14.0,49,0.00,,---,0.00,VWS V14.01,2013-03-07 18:25:00,
2013-03-07 13:30:00,45.0,27.5,30.20,NNE,16,11.0,11.0,50,0.00,,---,0.00,VWS V14.01,2013-03-07 18:30:00,
2013-03-07 13:35:00,44.8,27.3,30.19,WNW,292,7.0,13.0,50,0.00,,---,0.00,VWS V14.01,2013-03-07 18:35:00,
2013-03-07 13:40:00,45.0,27.0,30.19,North,355,10.0,12.0,49,0.00,,---,0.00,VWS V14.01,2013-03-07 18:40:00,
2013-03-07 13:46:00,45.2,28.2,30.19,North,355,12.0,14.0,51,0.00,,---,0.00,VWS V14.01,2013-03-07 18:46:00,
2013-03-07 13:50:00,44.8,26.3,30.19,NW,304,6.0,14.0,48,0.00,,---,0.00,VWS V14.01,2013-03-07 18:50:00,
2013-03-07 13:51:00,45.5,27.5,30.19,North,360,13.0,14.0,49,0.00,,---,0.00,VWS V14.01,2013-03-07 18:51:00,
2013-03-07 13:56:00,45.2,27.2,30.19,NNW,335,13.0,16.0,49,0.00,,---,0.00,VWS V14.01,2013-03-07 18:56:00,
2013-03-07 14:00:00,44.1,26.2,30.18,NW,323,8.0,18.0,49,0.00,,---,0.00,VWS V14.01,2013-03-07 19:00:00,
2013-03-07 14:01:00,44.7,27.2,30.18,WNW,293,7.0,12.0,50,0.00,,---,0.00,VWS V14.01,2013-03-07 19:01:00,
2013-03-07 14:06:00,44.6,26.6,30.19,North,349,9.0,19.0,49,0.00,,---,0.00,VWS V14.01,2013-03-07 19:06:00,
2013-03-07 14:10:00,45.3,28.2,30.19,NNW,338,13.0,17.0,51,0.00,,---,0.00,VWS V14.01,2013-03-07 19:10:00,
2013-03-07 14:12:00,44.6,26.6,30.19,North,350,18.0,18.0,49,0.00,,---,0.00,VWS V14.01,2013-03-07 19:12:00,
2013-03-07 14:17:00,44.7,26.7,30.19,North,350,11.0,22.0,49,0.00,,---,0.00,VWS V14.01,2013-03-07 19:17:00,
2013-03-07 14:20:00,44.7,26.7,30.19,NNW,333,6.0,16.0,49,0.00,,---,0.00,VWS V14.01,2013-03-07 19:20:00,
2013-03-07 14:22:00,44.7,26.7,30.19,NW,317,8.0,12.0,49,0.00,,---,0.00,VWS V14.01,2013-03-07 19:22:00,
2013-03-07 14:27:00,44.6,26.6,30.19,NW,315,8.0,17.0,49,0.00,,---,0.00,VWS V14.01,2013-03-07 19:27:00,
2013-03-07 14:30:00,44.3,25.9,30.20,NNW,333,11.0,15.0,48,0.00,,---,0.00,VWS V14.01,2013-03-07 19:30:00,
2013-03-07 14:33:00,45.0,27.0,30.19,NW,304,14.0,16.0,49,0.00,,---,0.00,VWS V14.01,2013-03-07 19:33:00,
2013-03-07 14:38:00,44.9,25.9,30.19,North,350,7.0,16.0,47,0.00,,---,0.00,VWS V14.01,2013-03-07 19:38:00,
2013-03-07 14:40:00,44.2,26.3,30.20,NNW,335,6.0,17.0,49,0.00,,---,0.00,VWS V14.01,2013-03-07 19:40:00,
2013-03-07 14:43:00,44.9,26.4,30.19,NNW,338,9.0,11.0,48,0.00,,---,0.00,VWS V14.01,2013-03-07 19:43:00,
2013-03-07 14:48:00,45.0,26.5,30.19,NW,309,10.0,14.0,48,0.00,,---,0.00,VWS V14.01,2013-03-07 19:48:00,
2013-03-07 14:50:00,44.6,26.6,30.20,NW,319,8.0,14.0,49,0.00,,---,0.00,VWS V14.01,2013-03-07 19:50:00,
2013-03-07 14:53:00,44.6,26.6,30.19,West,277,8.0,12.0,49,0.00,,---,0.00,VWS V14.01,2013-03-07 19:53:00,
2013-03-07 14:58:00,44.2,26.8,30.18,WNW,288,13.0,18.0,50,0.00,,---,0.00,VWS V14.01,2013-03-07 19:58:00,
2013-03-07 15:00:00,43.6,26.2,30.20,NNW,346,5.0,17.0,50,0.00,,---,0.00,VWS V14.01,2013-03-07 20:00:00,
2013-03-07 15:04:00,44.4,26.5,30.19,WNW,286,8.0,17.0,49,0.00,,---,0.00,VWS V14.01,2013-03-07 20:04:00,
2013-03-07 15:09:00,45.1,27.6,30.19,NNW,333,11.0,17.0,50,0.00,,---,0.00,VWS V14.01,2013-03-07 20:09:00,
2013-03-07 15:10:00,43.5,26.1,30.20,NNW,336,8.0,17.0,50,0.00,,---,0.00,VWS V14.01,2013-03-07 20:10:00,
2013-03-07 15:14:00,45.0,27.0,30.19,NNW,330,8.0,16.0,49,0.00,,---,0.00,VWS V14.01,2013-03-07 20:14:00,
2013-03-07 15:19:00,44.7,26.7,30.19,NW,323,8.0,16.0,49,0.00,,---,0.00,VWS V14.01,2013-03-07 20:19:00,
2013-03-07 15:20:00,43.7,26.3,30.20,NW,305,4.0,15.0,50,0.00,,---,0.00,VWS V14.01,2013-03-07 20:20:00,
2013-03-07 15:24:00,44.7,26.2,30.19,WNW,287,6.0,14.0,48,0.00,,---,0.00,VWS V14.01,2013-03-07 20:24:00,
2013-03-07 15:29:00,44.3,25.9,30.20,NNW,333,11.0,15.0,48,0.00,,---,0.00,VWS V14.01,2013-03-07 20:29:00,
2013-03-07 15:30:00,43.4,26.5,30.21,NNW,348,11.0,14.0,51,0.00,,---,0.00,VWS V14.01,2013-03-07 20:30:00,
2013-03-07 15:34:00,44.5,26.5,30.19,WNW,282,9.0,13.0,49,0.00,,---,0.00,VWS V14.01,2013-03-07 20:34:00,
2013-03-07 15:40:00,44.2,26.8,30.20,NNW,329,12.0,12.0,50,0.00,,---,0.00,VWS V14.01,2013-03-07 20:40:00,
2013-03-07 15:45:00,44.6,26.6,30.20,NW,323,6.0,12.0,49,0.00,,---,0.00,VWS V14.01,2013-03-07 20:45:00,
2013-03-07 15:50:00,44.6,26.6,30.20,WNW,291,14.0,14.0,49,0.00,,---,0.00,VWS V14.01,2013-03-07 20:50:00,
2013-03-07 15:55:00,44.2,26.3,30.20,NW,309,10.0,15.0,49,0.00,,---,0.00,VWS V14.01,2013-03-07 20:55:00,
2013-03-07 16:00:00,43.5,26.1,30.20,NW,311,14.0,17.0,50,0.00,,---,0.00,VWS V14.01,2013-03-07 21:00:00,
2013-03-07 16:06:00,43.8,26.4,30.20,West,280,12.0,17.0,50,0.00,,---,0.00,VWS V14.01,2013-03-07 21:06:00,
2013-03-07 16:10:00,42.0,25.2,30.22,NNW,347,11.0,15.0,51,0.00,,---,0.00,VWS V14.01,2013-03-07 21:10:00,
2013-03-07 16:11:00,43.5,26.6,30.20,North,360,9.0,10.0,51,0.00,,---,0.00,VWS V14.01,2013-03-07 21:11:00,
2013-03-07 16:16:00,43.6,26.2,30.20,NW,323,3.0,15.0,50,0.00,,---,0.00,VWS V14.01,2013-03-07 21:16:00,
2013-03-07 16:20:00,41.3,25.0,30.23,NW,324,5.0,19.0,52,0.00,,---,0.00,VWS V14.01,2013-03-07 21:20:00,
2013-03-07 16:21:00,43.7,26.8,30.20,WNW,300,9.0,9.0,51,0.00,,---,0.00,VWS V14.01,2013-03-07 21:21:00,
2013-03-07 16:26:00,43.5,26.1,30.20,North,9,6.0,11.0,50,0.00,,---,0.00,VWS V14.01,2013-03-07 21:26:00,
2013-03-07 16:30:00,40.9,25.1,30.23,NW,322,13.0,19.0,53,0.00,,---,0.00,VWS V14.01,2013-03-07 21:30:00,
2013-03-07 16:31:00,43.2,25.8,30.21,NNW,346,3.0,11.0,50,0.00,,---,0.00,VWS V14.01,2013-03-07 21:31:00,
2013-03-07 16:36:00,43.4,26.5,30.21,NNW,346,8.0,11.0,51,0.00,,---,0.00,VWS V14.01,2013-03-07 21:36:00,
2013-03-07 16:40:00,40.5,25.2,30.23,NW,321,9.0,14.0,54,0.00,,---,0.00,VWS V14.01,2013-03-07 21:40:00,
2013-03-07 16:42:00,43.1,25.7,30.21,WNW,294,8.0,13.0,50,0.00,,---,0.00,VWS V14.01,2013-03-07 21:42:00,
2013-03-07 16:47:00,42.9,25.6,30.21,NNW,338,9.0,16.0,50,0.00,,---,0.00,VWS V14.01,2013-03-07 21:47:00,
2013-03-07 16:50:00,39.5,24.7,30.24,NNW,333,13.0,15.0,55,0.00,,---,0.00,VWS V14.01,2013-03-07 21:50:00,
2013-03-07 16:52:00,42.5,25.7,30.22,NW,321,5.0,15.0,51,0.00,,---,0.00,VWS V14.01,2013-03-07 21:52:00,
2013-03-07 16:58:00,42.4,25.6,30.22,NW,315,6.0,15.0,51,0.00,,---,0.00,VWS V14.01,2013-03-07 21:58:00,
2013-03-07 17:00:00,38.7,24.8,30.24,NNW,331,6.0,14.0,57,0.00,,---,0.00,VWS V14.01,2013-03-07 22:00:00,
2013-03-07 17:03:00,42.2,25.4,30.22,North,350,8.0,15.0,51,0.00,,---,0.00,VWS V14.01,2013-03-07 22:03:00,
2013-03-07 17:08:00,42.2,25.4,30.22,NNW,335,15.0,15.0,51,0.00,,---,0.00,VWS V14.01,2013-03-07 22:08:00,
2013-03-07 17:10:00,38.3,24.8,30.24,North,355,5.0,7.0,58,0.00,,---,0.00,VWS V14.01,2013-03-07 22:10:00,
2013-03-07 17:13:00,41.5,24.7,30.22,North,5,14.0,17.0,51,0.00,,---,0.00,VWS V14.01,2013-03-07 22:13:00,
2013-03-07 17:18:00,41.3,25.0,30.23,North,355,8.0,19.0,52,0.00,,---,0.00,VWS V14.01,2013-03-07 22:18:00,
2013-03-07 17:20:00,37.8,24.8,30.25,NW,311,4.0,10.0,59,0.00,,---,0.00,VWS V14.01,2013-03-07 22:20:00,
2013-03-07 17:23:00,41.3,25.0,30.23,NNW,330,11.0,12.0,52,0.00,,---,0.00,VWS V14.01,2013-03-07 22:23:00,
2013-03-07 17:29:00,40.9,25.1,30.23,North,350,5.0,19.0,53,0.00,,---,0.00,VWS V14.01,2013-03-07 22:29:00,
2013-03-07 17:30:00,37.4,24.4,30.25,NNW,341,3.0,15.0,59,0.00,,---,0.00,VWS V14.01,2013-03-07 22:30:00,
2013-03-07 17:34:00,40.7,24.9,30.23,NNW,348,9.0,14.0,53,0.00,,---,0.00,VWS V14.01,2013-03-07 22:34:00,
2013-03-07 17:39:00,40.5,25.2,30.23,WNW,301,4.0,14.0,54,0.00,,---,0.00,VWS V14.01,2013-03-07 22:39:00,
2013-03-07 17:40:00,37.1,24.5,30.26,WNW,288,8.0,12.0,60,0.00,,---,0.00,VWS V14.01,2013-03-07 22:40:00,
2013-03-07 17:44:00,39.9,25.1,30.24,NW,325,8.0,15.0,55,0.00,,---,0.00,VWS V14.01,2013-03-07 22:44:00,
2013-03-07 17:49:00,39.5,24.7,30.24,NNW,333,13.0,15.0,55,0.00,,---,0.00,VWS V14.01,2013-03-07 22:49:00,
2013-03-07 17:50:00,36.9,24.3,30.26,WNW,283,3.0,9.0,60,0.00,,---,0.00,VWS V14.01,2013-03-07 22:50:00,
2013-03-07 17:54:00,39.0,25.1,30.24,WNW,292,7.0,14.0,57,0.00,,---,0.00,VWS V14.01,2013-03-07 22:54:00,
2013-03-07 18:00:00,38.7,24.8,30.24,WNW,300,5.0,6.0,57,0.00,,---,0.00,VWS V14.01,2013-03-07 23:00:00,
2013-03-07 18:05:00,38.5,25.0,30.24,NNW,336,2.0,7.0,58,0.00,,---,0.00,VWS V14.01,2013-03-07 23:05:00,
2013-03-07 18:10:00,38.3,24.8,30.24,NW,323,8.0,8.0,58,0.00,,---,0.00,VWS V14.01,2013-03-07 23:10:00,
2013-03-07 18:16:00,38.0,24.5,30.25,NW,325,9.0,10.0,58,0.00,,---,0.00,VWS V14.01,2013-03-07 23:16:00,
2013-03-07 18:20:00,36.3,24.2,30.27,WNW,303,6.0,9.0,61,0.00,,---,0.00,VWS V14.01,2013-03-07 23:20:00,
2013-03-07 18:21:00,37.7,24.7,30.25,NNE,13,7.0,8.0,59,0.00,,---,0.00,VWS V14.01,2013-03-07 23:21:00,
2013-03-07 18:26:00,37.5,24.5,30.25,NNW,327,6.0,15.0,59,0.00,,---,0.00,VWS V14.01,2013-03-07 23:26:00,
2013-03-07 18:30:00,36.4,24.2,30.27,WNW,300,6.0,8.0,61,0.00,,---,0.00,VWS V14.01,2013-03-07 23:30:00,
2013-03-07 18:31:00,37.3,24.3,30.25,NW,306,5.0,10.0,59,0.00,,---,0.00,VWS V14.01,2013-03-07 23:31:00,
2013-03-07 18:36:00,37.2,24.6,30.25,WNW,296,9.0,12.0,60,0.00,,---,0.00,VWS V14.01,2013-03-07 23:36:00,
2013-03-07 18:40:00,36.5,24.3,30.27,NNW,341,2.0,11.0,61,0.00,,---,0.00,VWS V14.01,2013-03-07 23:40:00,
2013-03-07 18:41:00,37.0,24.4,30.26,NW,305,3.0,8.0,60,0.00,,---,0.00,VWS V14.01,2013-03-07 23:41:00,
2013-03-07 18:46:00,37.0,24.4,30.26,WNW,294,4.0,9.0,60,0.00,,---,0.00,VWS V14.01,2013-03-07 23:46:00,
2013-03-07 18:50:00,36.2,24.1,30.28,North,360,4.0,4.0,61,0.00,,---,0.00,VWS V14.01,2013-03-07 23:50:00,
2013-03-07 18:52:00,36.8,24.6,30.26,NNE,19,2.0,5.0,61,0.00,,---,0.00,VWS V14.01,2013-03-07 23:52:00,
2013-03-07 18:57:00,36.7,24.5,30.26,NNW,342,2.0,5.0,61,0.00,,---,0.00,VWS V14.01,2013-03-07 23:57:00,
2013-03-07 19:00:00,36.2,23.7,30.28,NW,304,3.0,6.0,60,0.00,,---,0.00,VWS V14.01,2013-03-08 00:00:00,
2013-03-07 19:02:00,36.5,24.3,30.26,NNW,340,1.0,5.0,61,0.00,,---,0.00,VWS V14.01,2013-03-08 00:02:00,
2013-03-07 19:07:00,36.4,24.2,30.27,NW,309,1.0,5.0,61,0.00,,---,0.00,VWS V14.01,2013-03-08 00:07:00,
2013-03-07 19:10:00,36.4,23.9,30.28,NNW,330,2.0,8.0,60,0.00,,---,0.00,VWS V14.01,2013-03-08 00:10:00,
2013-03-07 19:13:00,36.3,24.5,30.27,NW,309,0.0,2.0,62,0.00,,---,0.00,VWS V14.01,2013-03-08 00:13:00,
2013-03-07 19:18:00,36.2,24.1,30.27,WNW,296,6.0,8.0,61,0.00,,---,0.00,VWS V14.01,2013-03-08 00:18:00,
2013-03-07 19:20:00,36.1,23.6,30.28,North,11,2.0,5.0,60,0.00,,---,0.00,VWS V14.01,2013-03-08 00:20:00,
2013-03-07 19:23:00,36.4,24.2,30.27,NW,326,3.0,7.0,61,0.00,,---,0.00,VWS V14.01,2013-03-08 00:23:00,
2013-03-07 19:28:00,36.4,24.2,30.27,WNW,298,5.0,8.0,61,0.00,,---,0.00,VWS V14.01,2013-03-08 00:28:00,
2013-03-07 19:30:00,36.0,23.9,30.28,WNW,290,3.0,4.0,61,0.00,,---,0.00,VWS V14.01,2013-03-08 00:30:00,
2013-03-07 19:33:00,36.5,24.0,30.28,NW,321,6.0,11.0,60,0.00,,---,0.00,VWS V14.01,2013-03-08 00:33:00,
2013-03-07 19:38:00,36.5,24.3,30.27,NW,324,3.0,11.0,61,0.00,,---,0.00,VWS V14.01,2013-03-08 00:38:00,
2013-03-07 19:40:00,35.6,23.9,30.29,NNW,344,2.0,4.0,62,0.00,,---,0.00,VWS V14.01,2013-03-08 00:40:00,
2013-03-07 19:44:00,36.4,24.2,30.27,NNW,339,2.0,4.0,61,0.00,,---,0.00,VWS V14.01,2013-03-08 00:44:00,
2013-03-07 19:49:00,36.2,24.1,30.28,North,5,1.0,4.0,61,0.00,,---,0.00,VWS V14.01,2013-03-08 00:49:00,
2013-03-07 19:50:00,35.9,23.4,30.28,NW,306,4.0,9.0,60,0.00,,---,0.00,VWS V14.01,2013-03-08 00:50:00,
2013-03-07 19:54:00,36.2,24.1,30.28,NNW,337,0.0,4.0,61,0.00,,---,0.00,VWS V14.01,2013-03-08 00:54:00,
2013-03-07 19:59:00,36.2,23.7,30.28,NW,304,3.0,6.0,60,0.00,,---,0.00,VWS V14.01,2013-03-08 00:59:00,
2013-03-07 20:00:00,35.7,23.2,30.28,West,276,1.0,4.0,60,0.00,,---,0.00,VWS V14.01,2013-03-08 01:00:00,
2013-03-07 20:05:00,36.3,23.8,30.28,NNW,331,2.0,8.0,60,0.00,,---,0.00,VWS V14.01,2013-03-08 01:05:00,
2013-03-07 20:10:00,36.4,23.9,30.28,NNW,329,2.0,2.0,60,0.00,,---,0.00,VWS V14.01,2013-03-08 01:10:00,
2013-03-07 20:15:00,36.3,23.8,30.28,NNW,330,0.0,3.0,60,0.00,,---,0.00,VWS V14.01,2013-03-08 01:15:00,
2013-03-07 20:20:00,36.1,23.6,30.28,NNW,344,3.0,3.0,60,0.00,,---,0.00,VWS V14.01,2013-03-08 01:20:00,
2013-03-07 20:25:00,36.0,23.9,30.28,NW,326,0.0,4.0,61,0.00,,---,0.00,VWS V14.01,2013-03-08 01:25:00,
2013-03-07 20:30:00,36.0,23.5,30.28,NW,313,3.0,4.0,60,0.00,,---,0.00,VWS V14.01,2013-03-08 01:30:00,
2013-03-07 20:35:00,35.8,24.1,30.29,NW,311,1.0,4.0,62,0.00,,---,0.00,VWS V14.01,2013-03-08 01:35:00,
2013-03-07 20:40:00,35.6,23.9,30.29,North,355,2.0,5.0,62,0.00,,---,0.00,VWS V14.01,2013-03-08 01:40:00,
2013-03-07 20:46:00,35.7,23.2,30.29,NW,316,6.0,9.0,60,0.00,,---,0.00,VWS V14.01,2013-03-08 01:46:00,
2013-03-07 20:50:00,33.3,23.5,30.28,NW,305,2.0,10.0,67,0.00,,---,0.00,VWS V14.01,2013-03-08 01:50:00,
2013-03-07 20:51:00,35.8,23.3,30.28,NNW,328,4.0,4.0,60,0.00,,---,0.00,VWS V14.01,2013-03-08 01:51:00,
2013-03-07 20:56:00,35.8,23.3,30.28,NW,307,2.0,4.0,60,0.00,,---,0.00,VWS V14.01,2013-03-08 01:56:00,
2013-03-07 21:00:00,35.1,23.8,30.29,NW,311,5.0,9.0,63,0.00,,---,0.00,VWS V14.01,2013-03-08 02:00:00,
2013-03-07 21:01:00,35.6,24.3,30.28,West,276,2.0,3.0,63,0.00,,---,0.00,VWS V14.01,2013-03-08 02:01:00,
2013-03-07 21:06:00,34.8,23.5,30.28,WNW,286,3.0,3.0,63,0.00,,---,0.00,VWS V14.01,2013-03-08 02:06:00,
2013-03-07 21:10:00,35.5,23.0,30.29,WNW,291,4.0,9.0,60,0.00,,---,0.00,VWS V14.01,2013-03-08 02:10:00,
2013-03-07 21:11:00,34.7,23.8,30.28,WSW,257,0.0,2.0,64,0.00,,---,0.00,VWS V14.01,2013-03-08 02:11:00,
2013-03-07 21:17:00,34.5,23.2,30.28,WNW,299,3.0,3.0,63,0.00,,---,0.00,VWS V14.01,2013-03-08 02:17:00,
2013-03-07 21:20:00,36.0,23.1,30.29,North,9,5.0,9.0,59,0.00,,---,0.00,VWS V14.01,2013-03-08 02:20:00,
2013-03-07 21:22:00,34.5,23.6,30.28,NW,314,3.0,5.0,64,0.00,,---,0.00,VWS V14.01,2013-03-08 02:22:00,
2013-03-07 21:27:00,34.3,23.4,30.28,NW,314,0.0,5.0,64,0.00,,---,0.00,VWS V14.01,2013-03-08 02:27:00,
2013-03-07 21:30:00,35.9,23.0,30.28,NNW,344,4.0,10.0,59,0.00,,---,0.00,VWS V14.01,2013-03-08 02:30:00,
2013-03-07 21:32:00,33.9,23.4,30.28,NW,314,1.0,1.0,65,0.00,,---,0.00,VWS V14.01,2013-03-08 02:32:00,
2013-03-07 21:37:00,33.4,24.0,30.28,NW,314,0.0,2.0,68,0.00,,---,0.00,VWS V14.01,2013-03-08 02:37:00,
2013-03-07 21:40:00,36.0,23.5,30.29,NNW,345,1.0,11.0,60,0.00,,---,0.00,VWS V14.01,2013-03-08 02:40:00,
2013-03-07 21:43:00,32.4,23.7,30.28,SW,218,10.0,10.0,70,0.00,,---,0.00,VWS V14.01,2013-03-08 02:43:00,
2013-03-07 21:48:00,32.9,23.2,30.28,NNW,332,5.0,10.0,67,0.00,,---,0.00,VWS V14.01,2013-03-08 02:48:00,
2013-03-07 21:50:00,35.8,23.3,30.28,WNW,282,5.0,9.0,60,0.00,,---,0.00,VWS V14.01,2013-03-08 02:50:00,
2013-03-07 21:53:00,34.0,23.1,30.28,NNW,344,5.0,9.0,64,0.00,,---,0.00,VWS V14.01,2013-03-08 02:53:00,
2013-03-07 21:58:00,34.9,23.2,30.29,NW,326,6.0,9.0,62,0.00,,---,0.00,VWS V14.01,2013-03-08 02:58:00,
2013-03-07 22:00:00,35.8,22.9,30.28,NNW,330,2.0,8.0,59,0.00,,---,0.00,VWS V14.01,2013-03-08 03:00:00,
2013-03-07 22:03:00,35.4,23.3,30.29,NW,310,3.0,6.0,61,0.00,,---,0.00,VWS V14.01,2013-03-08 03:03:00,
2013-03-07 22:08:00,35.5,23.4,30.29,NW,317,2.0,6.0,61,0.00,,---,0.00,VWS V14.01,2013-03-08 03:08:00,
2013-03-07 22:10:00,35.7,23.2,30.29,North,355,5.0,9.0,60,0.00,,---,0.00,VWS V14.01,2013-03-08 03:10:00,
2013-03-07 22:13:00,35.6,23.1,30.29,NNW,342,6.0,7.0,60,0.00,,---,0.00,VWS V14.01,2013-03-08 03:13:00,
2013-03-07 22:18:00,35.9,23.0,30.29,WNW,298,5.0,9.0,59,0.00,,---,0.00,VWS V14.01,2013-03-08 03:18:00,
2013-03-07 22:20:00,35.6,23.5,30.29,NW,313,4.0,11.0,61,0.00,,---,0.00,VWS V14.01,2013-03-08 03:20:00,
2013-03-07 22:23:00,36.1,23.2,30.29,NNW,334,5.0,10.0,59,0.00,,---,0.00,VWS V14.01,2013-03-08 03:23:00,
2013-03-07 22:28:00,35.9,23.0,30.28,NNW,336,3.0,10.0,59,0.00,,---,0.00,VWS V14.01,2013-03-08 03:28:00,
2013-03-07 22:30:00,35.7,23.2,30.28,NW,324,2.0,8.0,60,0.00,,---,0.00,VWS V14.01,2013-03-08 03:30:00,
2013-03-07 22:33:00,35.8,22.9,30.28,NNW,343,7.0,8.0,59,0.00,,---,0.00,VWS V14.01,2013-03-08 03:33:00,
2013-03-07 22:38:00,36.0,23.1,30.29,NNW,340,5.0,11.0,59,0.00,,---,0.00,VWS V14.01,2013-03-08 03:38:00,
2013-03-07 22:40:00,36.1,23.2,30.29,NNW,346,2.0,10.0,59,0.00,,---,0.00,VWS V14.01,2013-03-08 03:40:00,
2013-03-07 22:43:00,36.0,23.1,30.28,NW,316,5.0,9.0,59,0.00,,---,0.00,VWS V14.01,2013-03-08 03:43:00,
2013-03-07 22:48:00,35.9,23.4,30.28,NW,323,3.0,9.0,60,0.00,,---,0.00,VWS V14.01,2013-03-08 03:48:00,
2013-03-07 22:50:00,36.2,23.3,30.29,North,351,2.0,9.0,59,0.00,,---,0.00,VWS V14.01,2013-03-08 03:50:00,
2013-03-07 22:54:00,35.9,23.0,30.28,NNW,340,3.0,8.0,59,0.00,,---,0.00,VWS V14.01,2013-03-08 03:54:00,
2013-03-07 22:59:00,35.8,22.9,30.28,NW,307,3.0,8.0,59,0.00,,---,0.00,VWS V14.01,2013-03-08 03:59:00,
2013-03-07 23:00:00,36.2,23.7,30.29,NNW,341,4.0,7.0,60,0.00,,---,0.00,VWS V14.01,2013-03-08 04:00:00,
2013-03-07 23:04:00,35.7,23.2,30.28,NNE,26,6.0,9.0,60,0.00,,---,0.00,VWS V14.01,2013-03-08 04:04:00,
2013-03-07 23:09:00,35.6,23.1,30.29,NNW,342,6.0,9.0,60,0.00,,---,0.00,VWS V14.01,2013-03-08 04:09:00,
2013-03-07 23:10:00,36.1,23.6,30.28,NW,319,4.0,7.0,60,0.00,,---,0.00,VWS V14.01,2013-03-08 04:10:00,
2013-03-07 23:14:00,35.7,23.2,30.29,West,267,5.0,11.0,60,0.00,,---,0.00,VWS V14.01,2013-03-08 04:14:00,
2013-03-07 23:19:00,35.6,23.5,30.29,NNW,344,2.0,11.0,61,0.00,,---,0.00,VWS V14.01,2013-03-08 04:19:00,
2013-03-07 23:20:00,36.3,23.8,30.28,NNW,335,6.0,9.0,60,0.00,,---,0.00,VWS V14.01,2013-03-08 04:20:00,
2013-03-07 23:24:00,35.5,23.4,30.29,NNW,331,3.0,6.0,61,0.00,,---,0.00,VWS V14.01,2013-03-08 04:24:00,
2013-03-07 23:29:00,35.7,23.2,30.28,NNW,327,2.0,8.0,60,0.00,,---,0.00,VWS V14.01,2013-03-08 04:29:00,
2013-03-07 23:30:00,36.3,23.4,30.28,WNW,286,5.0,8.0,59,0.00,,---,0.00,VWS V14.01,2013-03-08 04:30:00,
2013-03-07 23:34:00,35.8,23.3,30.29,NW,313,6.0,10.0,60,0.00,,---,0.00,VWS V14.01,2013-03-08 04:34:00,
2013-03-07 23:39:00,36.1,23.2,30.29,NNW,346,3.0,10.0,59,0.00,,---,0.00,VWS V14.01,2013-03-08 04:39:00,
2013-03-07 23:40:00,36.3,23.8,30.28,NW,306,3.0,6.0,60,0.00,,---,0.00,VWS V14.01,2013-03-08 04:40:00,
2013-03-07 23:44:00,36.1,23.2,30.29,NW,306,4.0,6.0,59,0.00,,---,0.00,VWS V14.01,2013-03-08 04:44:00,
2013-03-07 23:49:00,36.2,23.3,30.29,North,351,2.0,9.0,59,0.00,,---,0.00,VWS V14.01,2013-03-08 04:49:00,
2013-03-07 23:50:00,36.4,23.9,30.27,NW,309,4.0,8.0,60,0.00,,---,0.00,VWS V14.01,2013-03-08 04:50:00,
2013-03-07 23:55:00,36.2,23.3,30.29,NNW,327,2.0,7.0,59,0.00,,---,0.00,VWS V14.01,2013-03-08 04:55:00,